createdAt,value
2023-02-22T00:09:37.977Z,101091.66
2023-02-22T00:19:39.374Z,101093.25
2023-02-22T00:29:46.380Z,101091.91
2023-02-22T00:39:48.952Z,101082.94
2023-02-22T00:49:50.418Z,101072.53
2023-02-22T00:59:51.912Z,101061.75
2023-02-22T01:09:53.627Z,101056.84
2023-02-22T01:19:55.036Z,101059.72
2023-02-22T01:29:56.553Z,101042.13
2023-02-22T01:39:58.582Z,101036.44
2023-02-22T01:50:00.042Z,101031.06
2023-02-22T02:00:16.829Z,101020.78
2023-02-22T02:10:18.341Z,101006.06
2023-02-22T02:20:49.364Z,100998.03
2023-02-22T02:31:12.476Z,100995.28
2023-02-22T02:41:18.689Z,100987.34
2023-02-22T02:51:22.945Z,100971.09
2023-02-22T03:01:45.249Z,100957.50
2023-02-22T03:12:02.340Z,100949.06
2023-02-22T03:22:09.616Z,100937.25
2023-02-22T03:32:16.824Z,100935.72
2023-02-22T03:42:24.467Z,100930.78
2023-02-22T03:52:26.330Z,100930.84
2023-02-22T04:02:27.810Z,100935.44
2023-02-22T04:12:29.361Z,100951.88
2023-02-22T04:22:30.885Z,100954.50
2023-02-22T04:32:32.387Z,100942.47
2023-02-22T04:42:35.956Z,100930.34
2023-02-22T04:52:37.432Z,100919.19
2023-02-22T05:02:40.049Z,100900.34
2023-02-22T05:12:41.570Z,100897.75
2023-02-22T05:22:43.084Z,100886.59
2023-02-22T05:32:46.967Z,100890.06
2023-02-22T05:42:50.257Z,100880.59
2023-02-22T05:52:52.449Z,100865.19
2023-02-22T06:03:05.489Z,100867.78
2023-02-22T06:13:07.053Z,100870.34
2023-02-22T06:23:08.567Z,100863.44
2023-02-22T06:33:11.358Z,100860.97
2023-02-22T06:43:13.898Z,100851.50
2023-02-22T06:53:15.405Z,100843.72
2023-02-22T07:03:17.553Z,100848.06
2023-02-22T07:13:19.321Z,100852.38
2023-02-22T07:23:21.122Z,100847.31
2023-02-22T07:33:22.862Z,100844.78
2023-02-22T07:43:26.475Z,100839.84
2023-02-22T07:53:30.954Z,100834.00
2023-02-22T08:03:36.516Z,100821.34
2023-02-22T08:13:39.324Z,100821.56
2023-02-22T08:23:40.708Z,100811.66
2023-02-22T08:33:42.531Z,100813.50
2023-02-22T08:43:43.900Z,100808.53
2023-02-22T08:53:45.262Z,100805.31
2023-02-22T09:03:48.607Z,100799.50
2023-02-22T09:13:50.191Z,100799.72
2023-02-22T09:23:54.573Z,100793.09
2023-02-22T09:33:55.943Z,100790.75
2023-02-22T09:44:20.040Z,100787.00
2023-02-22T09:54:26.948Z,100779.50
2023-02-22T10:04:43.098Z,100766.19
2023-02-22T10:14:59.678Z,100763.84
2023-02-22T10:25:17.853Z,100755.47
2023-02-22T10:35:27.513Z,100747.19
2023-02-22T10:45:32.794Z,100733.53
2023-02-22T10:55:34.691Z,100729.38
2023-02-22T11:05:39.044Z,100711.44
2023-02-22T11:15:40.467Z,100702.00
2023-02-22T11:25:42.910Z,100691.75
2023-02-22T11:35:58.111Z,100685.75
2023-02-22T11:46:16.356Z,100685.78
2023-02-22T11:56:36.838Z,100667.66
2023-02-22T12:06:44.477Z,100645.06
2023-02-22T12:17:19.185Z,100637.09
2023-02-22T12:27:27.473Z,100638.06
2023-02-22T12:38:06.795Z,100638.72
2023-02-22T12:48:46.793Z,100633.31
2023-02-22T12:59:00.106Z,100636.50
2023-02-22T13:09:18.838Z,100636.72
2023-02-22T13:19:43.015Z,100636.81
2023-02-22T13:29:49.037Z,100621.19
2023-02-22T13:40:13.759Z,100615.94
2023-02-22T13:50:27.008Z,100623.38
2023-02-22T14:00:46.880Z,100618.91
2023-02-22T14:10:52.191Z,100612.00
2023-02-22T14:21:13.208Z,100617.28
2023-02-22T14:31:33.631Z,100618.38
2023-02-22T14:41:41.016Z,100618.63
2023-02-22T14:51:50.502Z,100616.75
2023-02-22T15:02:12.855Z,100622.03
2023-02-22T15:12:26.684Z,100622.94
2023-02-22T15:22:35.640Z,100629.03
2023-02-22T15:32:49.855Z,100624.59
2023-02-22T15:43:04.577Z,100629.81
2023-02-22T15:53:21.729Z,100636.66
2023-02-22T16:03:23.748Z,100637.69
2023-02-22T16:13:32.547Z,100633.44
2023-02-22T16:24:15.117Z,100645.59
2023-02-22T16:34:17.151Z,100649.97
2023-02-22T16:44:18.613Z,100649.19
2023-02-22T16:54:29.636Z,100652.75
2023-02-22T17:04:31.311Z,100661.44
2023-02-22T17:14:35.379Z,100666.72
2023-02-22T17:24:39.180Z,100676.28
2023-02-22T17:34:40.760Z,100689.34
2023-02-22T17:44:42.522Z,100695.50
2023-02-22T17:54:43.853Z,100695.56
2023-02-22T18:04:45.332Z,100709.41
2023-02-22T18:14:46.822Z,100721.56
2023-02-22T18:24:48.452Z,100721.66
2023-02-22T18:34:49.843Z,100738.97
2023-02-22T18:44:52.645Z,100736.41
2023-02-22T18:54:54.113Z,100741.66
2023-02-22T19:04:57.636Z,100728.72
2023-02-22T19:14:59.552Z,100728.75
2023-02-22T19:25:01.395Z,100731.38
2023-02-22T19:35:03.052Z,100745.19
2023-02-22T19:45:04.688Z,100752.94
2023-02-22T19:55:12.767Z,100760.75
2023-02-22T20:05:16.366Z,100769.38
2023-02-22T20:15:18.072Z,100768.53
2023-02-22T20:25:20.170Z,100774.53
2023-02-22T20:35:21.541Z,100774.56
2023-02-22T20:45:23.443Z,100776.28
2023-02-22T20:55:25.589Z,100785.75
2023-02-22T21:05:27.097Z,100784.03
2023-02-22T21:15:29.268Z,100781.44
2023-02-22T21:25:31.540Z,100790.91
2023-02-22T21:35:36.897Z,100791.78
2023-02-22T21:45:38.987Z,100781.47
2023-02-22T21:55:40.873Z,100786.59
2023-02-22T22:05:46.059Z,100783.13
2023-02-22T22:15:47.600Z,100777.97
2023-02-22T22:25:51.275Z,100777.09
2023-02-22T22:35:52.660Z,100770.19
2023-02-22T22:45:54.207Z,100772.78
2023-02-22T22:55:55.650Z,100775.31
2023-02-22T23:06:02.562Z,100778.72
2023-02-22T23:16:07.643Z,100785.66
2023-02-22T23:26:11.730Z,100778.72
2023-02-22T23:36:13.339Z,100779.59
2023-02-22T23:46:18.820Z,100787.34
2023-02-22T23:56:21.969Z,100795.97
